sensor_id;sensor_type;location;lat;lon;timestamp;P1;durP1;ratioP1;P2;durP2;ratioP2
10315;SDS011;5203;48.976;8.306;2022-07-10T00:01:14;7.93;;;7.47;;
10315;SDS011;5203;48.976;8.306;2022-07-10T00:03:39;9.20;;;8.65;;
10315;SDS011;5203;48.976;8.306;2022-07-10T00:06:05;8.13;;;7.72;;
10315;SDS011;5203;48.976;8.306;2022-07-10T00:08:32;7.95;;;7.55;;
10315;SDS011;5203;48.976;8.306;2022-07-10T00:10:57;7.88;;;7.45;;
10315;SDS011;5203;48.976;8.306;2022-07-10T00:13:23;7.97;;;7.22;;
10315;SDS011;5203;48.976;8.306;2022-07-10T00:15:49;8.45;;;7.95;;
10315;SDS011;5203;48.976;8.306;2022-07-10T00:18:14;7.93;;;7.53;;
10315;SDS011;5203;48.976;8.306;2022-07-10T00:20:40;8.07;;;7.68;;
10315;SDS011;5203;48.976;8.306;2022-07-10T00:23:06;7.93;;;7.50;;
10315;SDS011;5203;48.976;8.306;2022-07-10T00:25:32;7.82;;;7.43;;
10315;SDS011;5203;48.976;8.306;2022-07-10T00:27:58;7.82;;;7.43;;
10315;SDS011;5203;48.976;8.306;2022-07-10T00:30:24;7.25;;;6.95;;
10315;SDS011;5203;48.976;8.306;2022-07-10T00:32:50;8.18;;;7.72;;
10315;SDS011;5203;48.976;8.306;2022-07-10T00:35:16;8.23;;;7.70;;
10315;SDS011;5203;48.976;8.306;2022-07-10T00:37:41;7.75;;;7.35;;
10315;SDS011;5203;48.976;8.306;2022-07-10T00:40:07;7.97;;;7.53;;
10315;SDS011;5203;48.976;8.306;2022-07-10T00:42:34;7.70;;;7.30;;
10315;SDS011;5203;48.976;8.306;2022-07-10T00:44:59;7.80;;;7.18;;
10315;SDS011;5203;48.976;8.306;2022-07-10T00:47:25;7.70;;;7.25;;
10315;SDS011;5203;48.976;8.306;2022-07-10T00:49:51;9.00;;;7.95;;
10315;SDS011;5203;48.976;8.306;2022-07-10T00:52:17;11.70;;;8.23;;
10315;SDS011;5203;48.976;8.306;2022-07-10T00:54:44;8.35;;;7.90;;
10315;SDS011;5203;48.976;8.306;2022-07-10T00:57:13;9.07;;;8.50;;
10315;SDS011;5203;48.976;8.306;2022-07-10T00:59:39;8.23;;;7.72;;
10315;SDS011;5203;48.976;8.306;2022-07-10T01:02:05;7.70;;;7.10;;
10315;SDS011;5203;48.976;8.306;2022-07-10T01:04:31;7.25;;;6.85;;
10315;SDS011;5203;48.976;8.306;2022-07-10T01:07:01;7.15;;;6.75;;
10315;SDS011;5203;48.976;8.306;2022-07-10T01:09:27;7.43;;;6.93;;
10315;SDS011;5203;48.976;8.306;2022-07-10T01:11:56;6.72;;;6.30;;
10315;SDS011;5203;48.976;8.306;2022-07-10T01:14:24;6.80;;;6.40;;
10315;SDS011;5203;48.976;8.306;2022-07-10T01:16:50;7.10;;;6.60;;
10315;SDS011;5203;48.976;8.306;2022-07-10T01:19:18;5.90;;;5.50;;
10315;SDS011;5203;48.976;8.306;2022-07-10T01:21:44;5.80;;;5.40;;
10315;SDS011;5203;48.976;8.306;2022-07-10T01:24:10;6.47;;;5.97;;
10315;SDS011;5203;48.976;8.306;2022-07-10T01:26:36;5.88;;;5.55;;
10315;SDS011;5203;48.976;8.306;2022-07-10T01:29:04;5.72;;;5.32;;
10315;SDS011;5203;48.976;8.306;2022-07-10T01:31:34;5.70;;;5.40;;
10315;SDS011;5203;48.976;8.306;2022-07-10T01:34:00;6.00;;;5.45;;
10315;SDS011;5203;48.976;8.306;2022-07-10T01:36:30;5.93;;;5.43;;
10315;SDS011;5203;48.976;8.306;2022-07-10T01:38:57;5.45;;;5.05;;
10315;SDS011;5203;48.976;8.306;2022-07-10T01:41:23;5.25;;;4.82;;
10315;SDS011;5203;48.976;8.306;2022-07-10T01:43:50;5.15;;;4.75;;
10315;SDS011;5203;48.976;8.306;2022-07-10T01:46:17;4.78;;;4.30;;
10315;SDS011;5203;48.976;8.306;2022-07-10T01:48:43;5.15;;;4.75;;
10315;SDS011;5203;48.976;8.306;2022-07-10T01:51:09;5.25;;;4.85;;
10315;SDS011;5203;48.976;8.306;2022-07-10T01:53:36;5.35;;;4.97;;
10315;SDS011;5203;48.976;8.306;2022-07-10T01:56:03;6.07;;;5.03;;
10315;SDS011;5203;48.976;8.306;2022-07-10T01:58:32;5.00;;;4.70;;
10315;SDS011;5203;48.976;8.306;2022-07-10T02:00:58;5.20;;;4.80;;
10315;SDS011;5203;48.976;8.306;2022-07-10T02:03:24;4.80;;;4.40;;
10315;SDS011;5203;48.976;8.306;2022-07-10T02:06:08;5.07;;;4.68;;
10315;SDS011;5203;48.976;8.306;2022-07-10T02:08:34;5.43;;;4.70;;
10315;SDS011;5203;48.976;8.306;2022-07-10T02:11:00;5.10;;;4.65;;
10315;SDS011;5203;48.976;8.306;2022-07-10T02:13:25;5.22;;;4.82;;
10315;SDS011;5203;48.976;8.306;2022-07-10T02:15:53;5.77;;;4.93;;
10315;SDS011;5203;48.976;8.306;2022-07-10T02:18:19;4.93;;;4.53;;
10315;SDS011;5203;48.976;8.306;2022-07-10T02:20:45;6.27;;;4.53;;
10315;SDS011;5203;48.976;8.306;2022-07-10T02:23:11;4.93;;;4.63;;
10315;SDS011;5203;48.976;8.306;2022-07-10T02:25:37;5.18;;;4.65;;
10315;SDS011;5203;48.976;8.306;2022-07-10T02:28:03;5.50;;;4.70;;
10315;SDS011;5203;48.976;8.306;2022-07-10T02:30:30;4.85;;;4.53;;
10315;SDS011;5203;48.976;8.306;2022-07-10T02:32:58;4.72;;;4.32;;
10315;SDS011;5203;48.976;8.306;2022-07-10T02:35:24;4.87;;;4.47;;
10315;SDS011;5203;48.976;8.306;2022-07-10T02:37:50;4.63;;;4.27;;
10315;SDS011;5203;48.976;8.306;2022-07-10T02:40:16;4.53;;;4.23;;
10315;SDS011;5203;48.976;8.306;2022-07-10T02:42:41;5.03;;;4.35;;
10315;SDS011;5203;48.976;8.306;2022-07-10T02:45:07;4.70;;;4.30;;
10315;SDS011;5203;48.976;8.306;2022-07-10T02:47:33;4.53;;;4.07;;
10315;SDS011;5203;48.976;8.306;2022-07-10T02:49:59;4.72;;;4.32;;
10315;SDS011;5203;48.976;8.306;2022-07-10T02:52:25;4.22;;;3.92;;
10315;SDS011;5203;48.976;8.306;2022-07-10T02:54:51;5.05;;;4.13;;
10315;SDS011;5203;48.976;8.306;2022-07-10T02:57:18;5.78;;;4.00;;
10315;SDS011;5203;48.976;8.306;2022-07-10T02:59:44;6.63;;;4.55;;
10315;SDS011;5203;48.976;8.306;2022-07-10T03:02:09;4.53;;;4.20;;
10315;SDS011;5203;48.976;8.306;2022-07-10T03:04:35;4.53;;;4.13;;
10315;SDS011;5203;48.976;8.306;2022-07-10T03:07:01;4.77;;;4.37;;
10315;SDS011;5203;48.976;8.306;2022-07-10T03:09:27;6.53;;;4.20;;
10315;SDS011;5203;48.976;8.306;2022-07-10T03:11:52;4.97;;;4.23;;
10315;SDS011;5203;48.976;8.306;2022-07-10T03:14:18;4.57;;;4.28;;
10315;SDS011;5203;48.976;8.306;2022-07-10T03:16:44;6.97;;;4.47;;
10315;SDS011;5203;48.976;8.306;2022-07-10T03:19:10;4.85;;;4.40;;
10315;SDS011;5203;48.976;8.306;2022-07-10T03:21:36;4.90;;;4.50;;
10315;SDS011;5203;48.976;8.306;2022-07-10T03:24:01;5.47;;;4.97;;
10315;SDS011;5203;48.976;8.306;2022-07-10T03:26:31;4.40;;;4.10;;
10315;SDS011;5203;48.976;8.306;2022-07-10T03:28:56;4.60;;;4.27;;
10315;SDS011;5203;48.976;8.306;2022-07-10T03:31:22;4.50;;;4.10;;
10315;SDS011;5203;48.976;8.306;2022-07-10T03:33:48;5.10;;;4.67;;
10315;SDS011;5203;48.976;8.306;2022-07-10T03:36:14;6.20;;;4.20;;
10315;SDS011;5203;48.976;8.306;2022-07-10T03:38:40;4.63;;;4.23;;
10315;SDS011;5203;48.976;8.306;2022-07-10T03:41:06;4.57;;;4.23;;
10315;SDS011;5203;48.976;8.306;2022-07-10T03:43:32;5.00;;;4.50;;
10315;SDS011;5203;48.976;8.306;2022-07-10T03:45:58;4.53;;;4.13;;
10315;SDS011;5203;48.976;8.306;2022-07-10T03:48:24;4.27;;;3.90;;
10315;SDS011;5203;48.976;8.306;2022-07-10T03:50:50;4.33;;;4.03;;
10315;SDS011;5203;48.976;8.306;2022-07-10T03:53:17;4.40;;;4.00;;
10315;SDS011;5203;48.976;8.306;2022-07-10T03:55:43;4.50;;;4.10;;
10315;SDS011;5203;48.976;8.306;2022-07-10T03:58:09;4.33;;;3.97;;
10315;SDS011;5203;48.976;8.306;2022-07-10T04:00:35;4.50;;;4.10;;
10315;SDS011;5203;48.976;8.306;2022-07-10T04:03:04;4.00;;;3.70;;
10315;SDS011;5203;48.976;8.306;2022-07-10T04:05:31;4.80;;;3.63;;
10315;SDS011;5203;48.976;8.306;2022-07-10T04:07:57;5.90;;;3.80;;
10315;SDS011;5203;48.976;8.306;2022-07-10T04:10:25;4.10;;;3.43;;
10315;SDS011;5203;48.976;8.306;2022-07-10T04:12:51;4.17;;;3.83;;
10315;SDS011;5203;48.976;8.306;2022-07-10T04:15:17;4.30;;;3.87;;
10315;SDS011;5203;48.976;8.306;2022-07-10T04:17:43;4.17;;;3.73;;
10315;SDS011;5203;48.976;8.306;2022-07-10T04:20:09;4.17;;;3.70;;
10315;SDS011;5203;48.976;8.306;2022-07-10T04:22:35;4.23;;;3.90;;
10315;SDS011;5203;48.976;8.306;2022-07-10T04:25:02;5.27;;;4.00;;
10315;SDS011;5203;48.976;8.306;2022-07-10T04:27:28;5.47;;;3.67;;
10315;SDS011;5203;48.976;8.306;2022-07-10T04:29:54;4.37;;;3.97;;
10315;SDS011;5203;48.976;8.306;2022-07-10T04:32:20;4.37;;;3.60;;
10315;SDS011;5203;48.976;8.306;2022-07-10T04:34:46;4.40;;;4.00;;
10315;SDS011;5203;48.976;8.306;2022-07-10T04:37:12;4.73;;;3.70;;
10315;SDS011;5203;48.976;8.306;2022-07-10T04:39:38;4.40;;;4.00;;
10315;SDS011;5203;48.976;8.306;2022-07-10T04:42:05;4.93;;;4.00;;
10315;SDS011;5203;48.976;8.306;2022-07-10T04:44:32;3.70;;;3.40;;
10315;SDS011;5203;48.976;8.306;2022-07-10T04:46:58;3.87;;;3.57;;
10315;SDS011;5203;48.976;8.306;2022-07-10T04:49:25;3.83;;;3.43;;
10315;SDS011;5203;48.976;8.306;2022-07-10T04:51:51;4.40;;;4.00;;
10315;SDS011;5203;48.976;8.306;2022-07-10T04:54:17;4.67;;;3.77;;
10315;SDS011;5203;48.976;8.306;2022-07-10T04:56:43;4.20;;;3.83;;
10315;SDS011;5203;48.976;8.306;2022-07-10T04:59:09;4.30;;;3.73;;
10315;SDS011;5203;48.976;8.306;2022-07-10T05:01:36;4.83;;;4.00;;
10315;SDS011;5203;48.976;8.306;2022-07-10T05:04:05;6.00;;;3.80;;
10315;SDS011;5203;48.976;8.306;2022-07-10T05:06:31;6.10;;;3.60;;
10315;SDS011;5203;48.976;8.306;2022-07-10T05:08:57;4.13;;;3.57;;
10315;SDS011;5203;48.976;8.306;2022-07-10T05:11:22;3.63;;;3.43;;
10315;SDS011;5203;48.976;8.306;2022-07-10T05:13:48;4.20;;;3.80;;
10315;SDS011;5203;48.976;8.306;2022-07-10T05:16:15;5.70;;;3.87;;
10315;SDS011;5203;48.976;8.306;2022-07-10T05:18:41;4.23;;;3.80;;
10315;SDS011;5203;48.976;8.306;2022-07-10T05:21:07;4.20;;;3.90;;
10315;SDS011;5203;48.976;8.306;2022-07-10T05:23:33;3.50;;;3.30;;
10315;SDS011;5203;48.976;8.306;2022-07-10T05:26:00;5.00;;;4.13;;
10315;SDS011;5203;48.976;8.306;2022-07-10T05:28:26;4.17;;;3.67;;
10315;SDS011;5203;48.976;8.306;2022-07-10T05:30:52;4.00;;;3.53;;
10315;SDS011;5203;48.976;8.306;2022-07-10T05:33:18;3.70;;;3.50;;
10315;SDS011;5203;48.976;8.306;2022-07-10T05:35:44;4.20;;;3.80;;
10315;SDS011;5203;48.976;8.306;2022-07-10T05:38:10;4.63;;;4.07;;
10315;SDS011;5203;48.976;8.306;2022-07-10T05:40:36;5.33;;;3.47;;
10315;SDS011;5203;48.976;8.306;2022-07-10T05:43:02;3.93;;;3.50;;
10315;SDS011;5203;48.976;8.306;2022-07-10T05:45:28;5.10;;;4.20;;
10315;SDS011;5203;48.976;8.306;2022-07-10T05:47:54;3.90;;;3.60;;
10315;SDS011;5203;48.976;8.306;2022-07-10T05:50:20;4.03;;;3.70;;
10315;SDS011;5203;48.976;8.306;2022-07-10T05:52:46;4.40;;;3.50;;
10315;SDS011;5203;48.976;8.306;2022-07-10T05:55:12;4.30;;;3.57;;
10315;SDS011;5203;48.976;8.306;2022-07-10T05:57:39;4.33;;;3.83;;
10315;SDS011;5203;48.976;8.306;2022-07-10T06:00:05;4.07;;;3.60;;
10315;SDS011;5203;48.976;8.306;2022-07-10T06:02:32;4.23;;;3.57;;
10315;SDS011;5203;48.976;8.306;2022-07-10T06:04:58;4.27;;;3.30;;
10315;SDS011;5203;48.976;8.306;2022-07-10T06:07:24;5.63;;;3.67;;
10315;SDS011;5203;48.976;8.306;2022-07-10T06:09:50;4.13;;;3.73;;
10315;SDS011;5203;48.976;8.306;2022-07-10T06:12:16;4.20;;;3.90;;
10315;SDS011;5203;48.976;8.306;2022-07-10T06:14:42;5.10;;;4.10;;
10315;SDS011;5203;48.976;8.306;2022-07-10T06:17:08;4.50;;;3.80;;
10315;SDS011;5203;48.976;8.306;2022-07-10T06:19:34;4.10;;;3.70;;
10315;SDS011;5203;48.976;8.306;2022-07-10T06:22:00;4.10;;;3.80;;
10315;SDS011;5203;48.976;8.306;2022-07-10T06:24:44;6.40;;;3.97;;
10315;SDS011;5203;48.976;8.306;2022-07-10T06:27:10;4.87;;;3.87;;
10315;SDS011;5203;48.976;8.306;2022-07-10T06:29:36;4.60;;;3.90;;
10315;SDS011;5203;48.976;8.306;2022-07-10T06:32:02;4.30;;;3.70;;
10315;SDS011;5203;48.976;8.306;2022-07-10T06:34:29;4.23;;;3.93;;
10315;SDS011;5203;48.976;8.306;2022-07-10T06:36:54;5.03;;;3.83;;
10315;SDS011;5203;48.976;8.306;2022-07-10T06:39:20;4.47;;;4.10;;
10315;SDS011;5203;48.976;8.306;2022-07-10T06:41:46;4.63;;;4.20;;
10315;SDS011;5203;48.976;8.306;2022-07-10T06:44:12;4.50;;;4.17;;
10315;SDS011;5203;48.976;8.306;2022-07-10T06:46:38;4.20;;;3.80;;
10315;SDS011;5203;48.976;8.306;2022-07-10T06:49:04;6.37;;;4.03;;
10315;SDS011;5203;48.976;8.306;2022-07-10T06:51:30;5.57;;;4.70;;
10315;SDS011;5203;48.976;8.306;2022-07-10T06:53:56;4.00;;;3.80;;
10315;SDS011;5203;48.976;8.306;2022-07-10T06:56:23;5.60;;;4.30;;
10315;SDS011;5203;48.976;8.306;2022-07-10T06:58:48;4.30;;;3.97;;
10315;SDS011;5203;48.976;8.306;2022-07-10T07:01:14;3.53;;;3.23;;
10315;SDS011;5203;48.976;8.306;2022-07-10T07:03:40;5.72;;;4.32;;
10315;SDS011;5203;48.976;8.306;2022-07-10T07:06:06;4.70;;;3.90;;
10315;SDS011;5203;48.976;8.306;2022-07-10T07:08:32;4.83;;;4.30;;
10315;SDS011;5203;48.976;8.306;2022-07-10T07:10:57;4.50;;;4.20;;
10315;SDS011;5203;48.976;8.306;2022-07-10T07:13:23;4.43;;;3.70;;
10315;SDS011;5203;48.976;8.306;2022-07-10T07:15:49;4.22;;;3.40;;
10315;SDS011;5203;48.976;8.306;2022-07-10T07:18:24;3.70;;;3.50;;
10315;SDS011;5203;48.976;8.306;2022-07-10T07:21:02;3.70;;;3.35;;
10315;SDS011;5203;48.976;8.306;2022-07-10T07:23:54;3.85;;;3.28;;
10315;SDS011;5203;48.976;8.306;2022-07-10T07:26:19;3.92;;;2.92;;
10315;SDS011;5203;48.976;8.306;2022-07-10T07:28:45;4.88;;;3.17;;
10315;SDS011;5203;48.976;8.306;2022-07-10T07:31:11;4.57;;;3.20;;
10315;SDS011;5203;48.976;8.306;2022-07-10T07:33:37;3.72;;;3.38;;
10315;SDS011;5203;48.976;8.306;2022-07-10T07:36:03;5.35;;;3.45;;
10315;SDS011;5203;48.976;8.306;2022-07-10T07:38:29;5.65;;;3.88;;
10315;SDS011;5203;48.976;8.306;2022-07-10T07:40:54;3.67;;;3.33;;
10315;SDS011;5203;48.976;8.306;2022-07-10T07:43:20;3.97;;;3.50;;
10315;SDS011;5203;48.976;8.306;2022-07-10T07:45:46;4.38;;;3.47;;
10315;SDS011;5203;48.976;8.306;2022-07-10T07:48:12;4.20;;;3.35;;
10315;SDS011;5203;48.976;8.306;2022-07-10T07:50:38;4.50;;;3.38;;
10315;SDS011;5203;48.976;8.306;2022-07-10T07:53:04;4.00;;;3.70;;
10315;SDS011;5203;48.976;8.306;2022-07-10T07:55:31;3.78;;;3.58;;
10315;SDS011;5203;48.976;8.306;2022-07-10T07:57:58;4.05;;;3.60;;
10315;SDS011;5203;48.976;8.306;2022-07-10T08:00:26;3.72;;;3.53;;
10315;SDS011;5203;48.976;8.306;2022-07-10T08:02:53;3.80;;;3.50;;
10315;SDS011;5203;48.976;8.306;2022-07-10T08:05:19;3.80;;;3.60;;
10315;SDS011;5203;48.976;8.306;2022-07-10T08:07:50;4.57;;;3.97;;
10315;SDS011;5203;48.976;8.306;2022-07-10T08:10:18;4.13;;;3.88;;
10315;SDS011;5203;48.976;8.306;2022-07-10T08:12:46;6.28;;;3.90;;
10315;SDS011;5203;48.976;8.306;2022-07-10T08:15:12;3.80;;;3.50;;
10315;SDS011;5203;48.976;8.306;2022-07-10T08:17:42;4.03;;;3.72;;
10315;SDS011;5203;48.976;8.306;2022-07-10T08:20:12;4.07;;;3.70;;
10315;SDS011;5203;48.976;8.306;2022-07-10T08:22:38;4.22;;;3.83;;
10315;SDS011;5203;48.976;8.306;2022-07-10T08:25:05;3.88;;;3.58;;
10315;SDS011;5203;48.976;8.306;2022-07-10T08:27:31;3.85;;;3.60;;
10315;SDS011;5203;48.976;8.306;2022-07-10T08:29:57;4.00;;;3.65;;
10315;SDS011;5203;48.976;8.306;2022-07-10T08:32:23;4.75;;;4.10;;
10315;SDS011;5203;48.976;8.306;2022-07-10T08:34:48;5.72;;;4.03;;
10315;SDS011;5203;48.976;8.306;2022-07-10T08:37:15;4.00;;;3.70;;
10315;SDS011;5203;48.976;8.306;2022-07-10T08:39:40;4.22;;;3.78;;
10315;SDS011;5203;48.976;8.306;2022-07-10T08:42:07;5.40;;;3.63;;
10315;SDS011;5203;48.976;8.306;2022-07-10T08:44:35;3.67;;;3.45;;
10315;SDS011;5203;48.976;8.306;2022-07-10T08:47:01;3.60;;;3.30;;
10315;SDS011;5203;48.976;8.306;2022-07-10T08:49:28;3.67;;;3.42;;
10315;SDS011;5203;48.976;8.306;2022-07-10T08:52:01;3.72;;;3.28;;
10315;SDS011;5203;48.976;8.306;2022-07-10T08:54:28;3.50;;;3.20;;
10315;SDS011;5203;48.976;8.306;2022-07-10T08:56:55;4.03;;;3.70;;
10315;SDS011;5203;48.976;8.306;2022-07-10T08:59:22;3.65;;;3.45;;
10315;SDS011;5203;48.976;8.306;2022-07-10T09:01:48;3.33;;;3.10;;
10315;SDS011;5203;48.976;8.306;2022-07-10T09:23:31;6.97;;;3.15;;
10315;SDS011;5203;48.976;8.306;2022-07-10T09:25:58;2.90;;;2.70;;
10315;SDS011;5203;48.976;8.306;2022-07-10T09:28:30;2.83;;;2.60;;
10315;SDS011;5203;48.976;8.306;2022-07-10T09:30:59;2.78;;;2.58;;
10315;SDS011;5203;48.976;8.306;2022-07-10T09:33:25;3.05;;;2.50;;
10315;SDS011;5203;48.976;8.306;2022-07-10T09:41:12;3.13;;;2.80;;
10315;SDS011;5203;48.976;8.306;2022-07-10T09:46:17;2.88;;;2.60;;
10315;SDS011;5203;48.976;8.306;2022-07-10T09:48:45;2.72;;;2.50;;
10315;SDS011;5203;48.976;8.306;2022-07-10T09:51:11;3.40;;;2.80;;
10315;SDS011;5203;48.976;8.306;2022-07-10T09:53:37;2.80;;;2.60;;
10315;SDS011;5203;48.976;8.306;2022-07-10T09:56:08;2.58;;;2.38;;
10315;SDS011;5203;48.976;8.306;2022-07-10T09:58:35;2.50;;;2.40;;
10315;SDS011;5203;48.976;8.306;2022-07-10T10:01:02;2.78;;;2.63;;
10315;SDS011;5203;48.976;8.306;2022-07-10T10:03:31;3.10;;;2.88;;
10315;SDS011;5203;48.976;8.306;2022-07-10T10:06:14;5.57;;;2.92;;
10315;SDS011;5203;48.976;8.306;2022-07-10T10:08:57;3.83;;;2.80;;
10315;SDS011;5203;48.976;8.306;2022-07-10T10:11:43;3.00;;;2.80;;
10315;SDS011;5203;48.976;8.306;2022-07-10T10:14:10;3.10;;;2.90;;
10315;SDS011;5203;48.976;8.306;2022-07-10T10:16:38;3.95;;;3.00;;
10315;SDS011;5203;48.976;8.306;2022-07-10T10:19:05;3.20;;;3.00;;
10315;SDS011;5203;48.976;8.306;2022-07-10T10:21:52;3.75;;;3.10;;
10315;SDS011;5203;48.976;8.306;2022-07-10T10:24:19;4.57;;;3.20;;
10315;SDS011;5203;48.976;8.306;2022-07-10T10:26:46;3.38;;;3.00;;
10315;SDS011;5203;48.976;8.306;2022-07-10T10:29:12;3.38;;;3.10;;
10315;SDS011;5203;48.976;8.306;2022-07-10T10:31:38;3.45;;;3.20;;
10315;SDS011;5203;48.976;8.306;2022-07-10T10:34:05;3.17;;;3.00;;
10315;SDS011;5203;48.976;8.306;2022-07-10T10:39:10;3.30;;;3.00;;
10315;SDS011;5203;48.976;8.306;2022-07-10T10:41:49;4.70;;;3.10;;
10315;SDS011;5203;48.976;8.306;2022-07-10T10:47:02;3.65;;;3.03;;
10315;SDS011;5203;48.976;8.306;2022-07-10T10:52:22;3.60;;;3.35;;
10315;SDS011;5203;48.976;8.306;2022-07-10T10:59:57;2.85;;;2.65;;
10315;SDS011;5203;48.976;8.306;2022-07-10T11:02:32;4.07;;;3.10;;
10315;SDS011;5203;48.976;8.306;2022-07-10T11:15:40;3.38;;;3.17;;
10315;SDS011;5203;48.976;8.306;2022-07-10T11:18:17;3.47;;;3.25;;
10315;SDS011;5203;48.976;8.306;2022-07-10T11:20:47;3.72;;;3.35;;
10315;SDS011;5203;48.976;8.306;2022-07-10T11:26:21;6.25;;;3.67;;
10315;SDS011;5203;48.976;8.306;2022-07-10T11:28:54;3.83;;;3.53;;
10315;SDS011;5203;48.976;8.306;2022-07-10T11:31:22;4.47;;;3.80;;
10315;SDS011;5203;48.976;8.306;2022-07-10T11:33:52;4.38;;;4.00;;
10315;SDS011;5203;48.976;8.306;2022-07-10T11:36:20;4.80;;;4.45;;
10315;SDS011;5203;48.976;8.306;2022-07-10T11:39:03;4.53;;;4.22;;
10315;SDS011;5203;48.976;8.306;2022-07-10T11:41:29;5.03;;;4.63;;
10315;SDS011;5203;48.976;8.306;2022-07-10T11:43:57;5.68;;;4.25;;
10315;SDS011;5203;48.976;8.306;2022-07-10T11:46:24;4.32;;;4.03;;
10315;SDS011;5203;48.976;8.306;2022-07-10T11:48:52;4.40;;;4.03;;
10315;SDS011;5203;48.976;8.306;2022-07-10T11:51:22;4.10;;;3.80;;
10315;SDS011;5203;48.976;8.306;2022-07-10T11:54:09;4.57;;;4.28;;
10315;SDS011;5203;48.976;8.306;2022-07-10T11:56:37;5.40;;;4.28;;
10315;SDS011;5203;48.976;8.306;2022-07-10T11:59:07;4.10;;;3.70;;
10315;SDS011;5203;48.976;8.306;2022-07-10T12:01:40;4.03;;;3.50;;
10315;SDS011;5203;48.976;8.306;2022-07-10T12:04:18;3.90;;;3.60;;
10315;SDS011;5203;48.976;8.306;2022-07-10T12:06:47;4.78;;;3.35;;
10315;SDS011;5203;48.976;8.306;2022-07-10T12:09:15;3.45;;;3.25;;
10315;SDS011;5203;48.976;8.306;2022-07-10T12:11:42;3.55;;;3.22;;
10315;SDS011;5203;48.976;8.306;2022-07-10T12:16:36;4.60;;;3.90;;
10315;SDS011;5203;48.976;8.306;2022-07-10T12:19:02;3.92;;;3.58;;
10315;SDS011;5203;48.976;8.306;2022-07-10T12:21:28;3.63;;;3.30;;
10315;SDS011;5203;48.976;8.306;2022-07-10T12:23:55;3.38;;;3.17;;
10315;SDS011;5203;48.976;8.306;2022-07-10T12:26:21;3.67;;;3.40;;
10315;SDS011;5203;48.976;8.306;2022-07-10T12:28:51;3.70;;;3.40;;
10315;SDS011;5203;48.976;8.306;2022-07-10T12:31:24;4.13;;;3.72;;
10315;SDS011;5203;48.976;8.306;2022-07-10T12:33:58;4.22;;;3.60;;
10315;SDS011;5203;48.976;8.306;2022-07-10T12:39:35;3.58;;;3.38;;
10315;SDS011;5203;48.976;8.306;2022-07-10T12:42:02;4.03;;;3.40;;
10315;SDS011;5203;48.976;8.306;2022-07-10T12:44:33;3.63;;;3.33;;
10315;SDS011;5203;48.976;8.306;2022-07-10T12:47:10;5.15;;;3.70;;
10315;SDS011;5203;48.976;8.306;2022-07-10T12:49:50;4.43;;;3.70;;
10315;SDS011;5203;48.976;8.306;2022-07-10T12:52:20;3.63;;;3.42;;
10315;SDS011;5203;48.976;8.306;2022-07-10T13:00:19;4.28;;;3.65;;
10315;SDS011;5203;48.976;8.306;2022-07-10T13:02:45;6.05;;;3.90;;
10315;SDS011;5203;48.976;8.306;2022-07-10T13:08:14;4.03;;;3.72;;
10315;SDS011;5203;48.976;8.306;2022-07-10T13:10:42;3.90;;;3.60;;
10315;SDS011;5203;48.976;8.306;2022-07-10T13:13:09;3.67;;;3.40;;
10315;SDS011;5203;48.976;8.306;2022-07-10T13:15:36;4.10;;;3.72;;
10315;SDS011;5203;48.976;8.306;2022-07-10T13:18:12;4.15;;;3.85;;
10315;SDS011;5203;48.976;8.306;2022-07-10T13:20:58;4.20;;;3.90;;
10315;SDS011;5203;48.976;8.306;2022-07-10T13:23:24;3.95;;;3.55;;
10315;SDS011;5203;48.976;8.306;2022-07-10T13:25:51;3.40;;;3.20;;
10315;SDS011;5203;48.976;8.306;2022-07-10T13:28:17;3.60;;;3.40;;
10315;SDS011;5203;48.976;8.306;2022-07-10T13:30:44;3.88;;;3.58;;
10315;SDS011;5203;48.976;8.306;2022-07-10T13:33:09;5.05;;;4.10;;
10315;SDS011;5203;48.976;8.306;2022-07-10T13:35:35;4.50;;;3.58;;
10315;SDS011;5203;48.976;8.306;2022-07-10T13:38:01;3.45;;;3.25;;
10315;SDS011;5203;48.976;8.306;2022-07-10T13:40:28;4.03;;;3.72;;
10315;SDS011;5203;48.976;8.306;2022-07-10T13:42:55;3.70;;;3.50;;
10315;SDS011;5203;48.976;8.306;2022-07-10T13:45:22;3.83;;;3.63;;
10315;SDS011;5203;48.976;8.306;2022-07-10T13:47:50;4.00;;;3.65;;
10315;SDS011;5203;48.976;8.306;2022-07-10T13:50:18;3.92;;;3.63;;
10315;SDS011;5203;48.976;8.306;2022-07-10T13:52:45;4.18;;;3.88;;
10315;SDS011;5203;48.976;8.306;2022-07-10T13:55:11;4.63;;;3.78;;
10315;SDS011;5203;48.976;8.306;2022-07-10T13:57:37;3.95;;;3.60;;
10315;SDS011;5203;48.976;8.306;2022-07-10T14:00:03;4.38;;;3.60;;
10315;SDS011;5203;48.976;8.306;2022-07-10T14:02:29;4.13;;;3.80;;
10315;SDS011;5203;48.976;8.306;2022-07-10T14:04:55;3.85;;;3.60;;
10315;SDS011;5203;48.976;8.306;2022-07-10T14:07:20;4.15;;;3.70;;
10315;SDS011;5203;48.976;8.306;2022-07-10T14:09:49;4.25;;;3.95;;
10315;SDS011;5203;48.976;8.306;2022-07-10T14:12:15;4.35;;;4.05;;
10315;SDS011;5203;48.976;8.306;2022-07-10T14:14:41;4.40;;;4.00;;
10315;SDS011;5203;48.976;8.306;2022-07-10T14:17:06;4.22;;;3.92;;
10315;SDS011;5203;48.976;8.306;2022-07-10T14:19:32;4.45;;;4.05;;
10315;SDS011;5203;48.976;8.306;2022-07-10T14:21:58;4.25;;;3.95;;
10315;SDS011;5203;48.976;8.306;2022-07-10T14:24:24;4.57;;;4.20;;
10315;SDS011;5203;48.976;8.306;2022-07-10T14:26:50;4.15;;;3.85;;
10315;SDS011;5203;48.976;8.306;2022-07-10T14:29:18;4.10;;;3.78;;
10315;SDS011;5203;48.976;8.306;2022-07-10T14:31:44;4.18;;;3.80;;
10315;SDS011;5203;48.976;8.306;2022-07-10T14:34:14;4.45;;;4.05;;
10315;SDS011;5203;48.976;8.306;2022-07-10T14:36:44;4.30;;;4.00;;
10315;SDS011;5203;48.976;8.306;2022-07-10T14:39:10;4.18;;;3.88;;
10315;SDS011;5203;48.976;8.306;2022-07-10T14:41:39;4.28;;;3.80;;
10315;SDS011;5203;48.976;8.306;2022-07-10T14:44:05;5.95;;;4.25;;
10315;SDS011;5203;48.976;8.306;2022-07-10T14:46:34;4.38;;;4.07;;
10315;SDS011;5203;48.976;8.306;2022-07-10T14:48:59;4.43;;;4.03;;
10315;SDS011;5203;48.976;8.306;2022-07-10T14:51:26;4.72;;;4.32;;
10315;SDS011;5203;48.976;8.306;2022-07-10T14:53:51;4.47;;;4.10;;
10315;SDS011;5203;48.976;8.306;2022-07-10T14:56:18;4.72;;;4.43;;
10315;SDS011;5203;48.976;8.306;2022-07-10T14:58:45;4.38;;;4.05;;
10315;SDS011;5203;48.976;8.306;2022-07-10T15:01:11;4.65;;;4.35;;
10315;SDS011;5203;48.976;8.306;2022-07-10T15:03:37;5.07;;;4.78;;
10315;SDS011;5203;48.976;8.306;2022-07-10T15:06:03;4.55;;;4.30;;
10315;SDS011;5203;48.976;8.306;2022-07-10T15:08:29;4.95;;;4.57;;
10315;SDS011;5203;48.976;8.306;2022-07-10T15:10:55;6.63;;;4.57;;
10315;SDS011;5203;48.976;8.306;2022-07-10T15:13:21;4.57;;;4.22;;
10315;SDS011;5203;48.976;8.306;2022-07-10T15:15:46;4.38;;;4.07;;
10315;SDS011;5203;48.976;8.306;2022-07-10T15:18:15;4.47;;;4.28;;
10315;SDS011;5203;48.976;8.306;2022-07-10T15:20:40;4.95;;;4.55;;
10315;SDS011;5203;48.976;8.306;2022-07-10T15:23:06;4.82;;;4.55;;
10315;SDS011;5203;48.976;8.306;2022-07-10T15:25:32;5.88;;;4.53;;
10315;SDS011;5203;48.976;8.306;2022-07-10T15:27:57;4.55;;;4.25;;
10315;SDS011;5203;48.976;8.306;2022-07-10T15:30:24;4.85;;;4.38;;
10315;SDS011;5203;48.976;8.306;2022-07-10T15:32:50;4.70;;;4.20;;
10315;SDS011;5203;48.976;8.306;2022-07-10T15:35:18;5.15;;;4.75;;
10315;SDS011;5203;48.976;8.306;2022-07-10T15:37:44;5.32;;;4.80;;
10315;SDS011;5203;48.976;8.306;2022-07-10T15:40:10;5.25;;;4.75;;
10315;SDS011;5203;48.976;8.306;2022-07-10T15:42:36;5.68;;;5.20;;
10315;SDS011;5203;48.976;8.306;2022-07-10T15:45:01;5.22;;;4.80;;
10315;SDS011;5203;48.976;8.306;2022-07-10T15:47:27;8.70;;;4.90;;
10315;SDS011;5203;48.976;8.306;2022-07-10T15:49:53;5.20;;;4.80;;
10315;SDS011;5203;48.976;8.306;2022-07-10T15:52:19;4.60;;;4.20;;
10315;SDS011;5203;48.976;8.306;2022-07-10T15:54:44;5.13;;;4.70;;
10315;SDS011;5203;48.976;8.306;2022-07-10T15:57:10;4.70;;;4.28;;
10315;SDS011;5203;48.976;8.306;2022-07-10T15:59:39;4.68;;;4.32;;
10315;SDS011;5203;48.976;8.306;2022-07-10T16:02:05;6.60;;;6.00;;
10315;SDS011;5203;48.976;8.306;2022-07-10T16:04:32;6.88;;;6.38;;
10315;SDS011;5203;48.976;8.306;2022-07-10T16:06:57;6.68;;;6.07;;
10315;SDS011;5203;48.976;8.306;2022-07-10T16:09:23;5.90;;;5.47;;